Terminal Aerodrome Forecast
Issued by NWS

Current Version | Previous Version | Graphics & Text | Print | Product List | Glossary On
Versions: 1 2 3 4 5 6 7 8 9 10 11 12 13 14 15 16 17 18 19 20 21 22 23 24 25 26 27
000
FTUS41 KRLX 272300
TAFCKB
TAF
KCKB 272325Z 2800/2824 32006KT 5SM -SHSN BR BKN025
     FM280400 31007KT P6SM BKN025
     FM280900 29004KT P6SM SCT030
     FM281100 VRB03KT P6SM BKN200
     FM281500 25004KT P6SM FEW025=

USA.gov is the U.S. government's official web portal to all federal, state and local government web resources and services.